ACA892 KBOS-CYHZ
Flight info
| Callsign | ACA892 |
|---|---|
| Flight time | N/A |
| Altitude | 37000 |
| Route | LBSTA8 LBSTA DCT ALLEX FUNDY5 |
| Aircraft | A21N/M-SDE2E3FGHIRWXY/LB1 |
Departure
| Time | 2026-05-05 01:08 |
|---|---|
| Airport | Boston Logan International Airport (KBOS) |
Arrival
| Time | N/A |
|---|---|
| Airport | Halifax / Stanfield International Airport (CYHZ) |
| Time | Latitude | Longitude | Altitude | Speed | Heading |
|---|---|---|---|---|---|
| 2026-05-05 00:47 | 42.36289 | -71.01662 | 28 ft | 0 kts | 354° |
| 2026-05-05 00:58 | 42.36288 | -71.01662 | 28 ft | 2 kts | 354° |
| 2026-05-05 00:58 | 42.36269 | -71.01661 | 28 ft | 3 kts | 25° |
| 2026-05-05 00:58 | 42.36255 | -71.01677 | 28 ft | 2 kts | 44° |
| 2026-05-05 00:58 | 42.36248 | -71.01695 | 28 ft | 0 kts | 98° |
| 2026-05-05 01:01 | 42.36247 | -71.01692 | 28 ft | 1 kts | 102° |
| 2026-05-05 01:01 | 42.36242 | -71.01670 | 10 ft | 2 kts | 91° |
| 2026-05-05 01:01 | 42.36236 | -71.01595 | 28 ft | 14 kts | 105° |
| 2026-05-05 01:01 | 42.36229 | -71.01477 | 28 ft | 10 kts | 39° |
| 2026-05-05 01:02 | 42.36296 | -71.01447 | 27 ft | 12 kts | 20° |
| 2026-05-05 01:02 | 42.36378 | -71.01407 | 28 ft | 12 kts | 20° |
| 2026-05-05 01:02 | 42.36461 | -71.01367 | 27 ft | 14 kts | 21° |
| 2026-05-05 01:02 | 42.36562 | -71.01305 | 27 ft | 18 kts | 25° |
| 2026-05-05 01:03 | 42.36686 | -71.01251 | 30 ft | 18 kts | 14° |
| 2026-05-05 01:03 | 42.36800 | -71.01274 | 28 ft | 16 kts | 330° |
| 2026-05-05 01:03 | 42.36879 | -71.01230 | 27 ft | 13 kts | 40° |
| 2026-05-05 01:03 | 42.36948 | -71.01150 | 28 ft | 13 kts | 40° |
| 2026-05-05 01:04 | 42.37031 | -71.01080 | 28 ft | 16 kts | 26° |
| 2026-05-05 01:04 | 42.37253 | -71.00936 | 25 ft | 17 kts | 25° |
| 2026-05-05 01:04 | 42.37362 | -71.00876 | 25 ft | 17 kts | 20° |
| 2026-05-05 01:05 | 42.37468 | -71.00823 | 26 ft | 16 kts | 20° |
| 2026-05-05 01:05 | 42.37567 | -71.00775 | 27 ft | 15 kts | 20° |
| 2026-05-05 01:05 | 42.37667 | -71.00727 | 30 ft | 15 kts | 19° |
| 2026-05-05 01:05 | 42.37765 | -71.00679 | 32 ft | 15 kts | 21° |
| 2026-05-05 01:06 | 42.37842 | -71.00596 | 31 ft | 14 kts | 85° |
| 2026-05-05 01:06 | 42.37841 | -71.00578 | 31 ft | 1 kts | 105° |
| 2026-05-05 01:06 | 42.37827 | -71.00534 | 30 ft | 10 kts | 113° |
| 2026-05-05 01:06 | 42.37774 | -71.00480 | 29 ft | 10 kts | 188° |
| 2026-05-05 01:07 | 42.37704 | -71.00514 | 30 ft | 22 kts | 199° |
| 2026-05-05 01:07 | 42.37331 | -71.00694 | 27 ft | 93 kts | 199° |
| 2026-05-05 01:07 | 42.36506 | -71.01091 | 70 ft | 153 kts | 200° |
| 2026-05-05 01:07 | 42.35430 | -71.01577 | 535 ft | 171 kts | 197° |
| 2026-05-05 01:08 | 42.34190 | -71.01485 | 1026 ft | 198 kts | 161° |
| 2026-05-05 01:08 | 42.33038 | -71.00134 | 1329 ft | 247 kts | 135° |
| 2026-05-05 01:08 | 42.31928 | -70.98071 | 1366 ft | 295 kts | 131° |
| 2026-05-05 01:08 | 42.31019 | -70.95294 | 1303 ft | 355 kts | 104° |
| 2026-05-05 01:09 | 42.31125 | -70.91848 | 1952 ft | 374 kts | 79° |
| 2026-05-05 01:09 | 42.31790 | -70.88567 | 2959 ft | 342 kts | 75° |
| 2026-05-05 01:09 | 42.32393 | -70.85680 | 3583 ft | 300 kts | 75° |
| 2026-05-05 01:09 | 42.32910 | -70.83007 | 3945 ft | 292 kts | 76° |
| 2026-05-05 01:10 | 42.33386 | -70.80326 | 4026 ft | 293 kts | 77° |
| 2026-05-05 01:10 | 42.33928 | -70.77719 | 4020 ft | 292 kts | 65° |
| 2026-05-05 01:10 | 42.35080 | -70.75507 | 4015 ft | 285 kts | 36° |
| 2026-05-05 01:10 | 42.36781 | -70.74241 | 4027 ft | 279 kts | 15° |
| 2026-05-05 01:11 | 42.38629 | -70.73421 | 4038 ft | 280 kts | 12° |
| 2026-05-05 01:11 | 42.40497 | -70.72671 | 4013 ft | 280 kts | 12° |
| 2026-05-05 01:11 | 42.42371 | -70.71917 | 4003 ft | 281 kts | 12° |
| 2026-05-05 01:11 | 42.44251 | -70.71165 | 4040 ft | 279 kts | 10° |
| 2026-05-05 01:12 | 42.46124 | -70.70551 | 4466 ft | 278 kts | 8° |
| 2026-05-05 01:12 | 42.48020 | -70.69977 | 5348 ft | 277 kts | 7° |
| 2026-05-05 01:12 | 42.49898 | -70.69414 | 6373 ft | 274 kts | 7° |
| 2026-05-05 01:12 | 42.51733 | -70.68864 | 7264 ft | 274 kts | 7° |
| 2026-05-05 01:13 | 42.53606 | -70.68305 | 8054 ft | 277 kts | 7° |
| 2026-05-05 01:13 | 42.55504 | -70.67737 | 8871 ft | 280 kts | 7° |
| 2026-05-05 01:13 | 42.57416 | -70.67164 | 9710 ft | 282 kts | 7° |
| 2026-05-05 01:13 | 42.59342 | -70.66585 | 10419 ft | 288 kts | 7° |
| 2026-05-05 01:14 | 42.61370 | -70.65982 | 10722 ft | 308 kts | 7° |
| 2026-05-05 01:14 | 42.63536 | -70.65337 | 11029 ft | 328 kts | 8° |
| 2026-05-05 01:14 | 42.65829 | -70.64649 | 11349 ft | 345 kts | 8° |
| 2026-05-05 01:14 | 42.68220 | -70.63985 | 11879 ft | 354 kts | 6° |
| 2026-05-05 01:15 | 42.69838 | -70.63605 | 12292 ft | 359 kts | 5° |
| 2026-05-05 01:15 | 42.73145 | -70.62869 | 13136 ft | 367 kts | 5° |
| 2026-05-05 01:15 | 42.75681 | -70.62220 | 13783 ft | 375 kts | 10° |
| 2026-05-05 01:15 | 42.78161 | -70.61016 | 14439 ft | 383 kts | 22° |
| 2026-05-05 01:16 | 42.79698 | -70.59808 | 14858 ft | 389 kts | 31° |
| 2026-05-05 01:16 | 42.81758 | -70.57341 | 15476 ft | 399 kts | 46° |
| 2026-05-05 01:16 | 42.83437 | -70.54288 | 16094 ft | 405 kts | 53° |
| 2026-05-05 01:16 | 42.85477 | -70.49980 | 16784 ft | 411 kts | 55° |
| 2026-05-05 01:17 | 42.86513 | -70.47754 | 16935 ft | 412 kts | 55° |
| 2026-05-05 01:17 | 42.88056 | -70.44448 | 16982 ft | 413 kts | 55° |
| 2026-05-05 01:17 | 42.89604 | -70.41142 | 16982 ft | 414 kts | 54° |
| 2026-05-05 01:17 | 42.91141 | -70.37871 | 16990 ft | 414 kts | 54° |
| 2026-05-05 01:18 | 42.92693 | -70.34570 | 16981 ft | 414 kts | 54° |
| 2026-05-05 01:18 | 42.94252 | -70.31255 | 16993 ft | 414 kts | 54° |
| 2026-05-05 01:18 | 42.95808 | -70.27945 | 16999 ft | 414 kts | 54° |
| 2026-05-05 01:18 | 42.97371 | -70.24619 | 17367 ft | 418 kts | 54° |
| 2026-05-05 01:19 | 42.98943 | -70.21269 | 18036 ft | 420 kts | 54° |
| 2026-05-05 01:19 | 43.00527 | -70.17890 | 18593 ft | 423 kts | 54° |
| 2026-05-05 01:19 | 43.02117 | -70.14497 | 19126 ft | 425 kts | 54° |
| 2026-05-05 01:19 | 43.03717 | -70.11076 | 19679 ft | 427 kts | 54° |
| 2026-05-05 01:20 | 43.05302 | -70.07685 | 20201 ft | 430 kts | 54° |